sensor_id;sensor_type;location;lat;lon;timestamp;P1;durP1;ratioP1;P2;durP2;ratioP2
60714;SDS011;46564;53.096;8.246;2023-06-10T00:03:02;2.15;;;1.40;;
60714;SDS011;46564;53.096;8.246;2023-06-10T00:08:07;3.75;;;1.30;;
60714;SDS011;46564;53.096;8.246;2023-06-10T00:13:10;3.70;;;1.30;;
60714;SDS011;46564;53.096;8.246;2023-06-10T00:18:12;2.17;;;1.02;;
60714;SDS011;46564;53.096;8.246;2023-06-10T00:23:14;7.93;;;1.90;;
60714;SDS011;46564;53.096;8.246;2023-06-10T00:28:15;3.63;;;1.48;;
60714;SDS011;46564;53.096;8.246;2023-06-10T00:33:17;1.73;;;0.95;;
60714;SDS011;46564;53.096;8.246;2023-06-10T00:38:19;5.53;;;1.52;;
60714;SDS011;46564;53.096;8.246;2023-06-10T00:43:21;3.38;;;1.10;;
60714;SDS011;46564;53.096;8.246;2023-06-10T00:48:23;5.18;;;1.17;;
60714;SDS011;46564;53.096;8.246;2023-06-10T00:53:26;4.55;;;1.48;;
60714;SDS011;46564;53.096;8.246;2023-06-10T00:58:29;2.17;;;1.17;;
60714;SDS011;46564;53.096;8.246;2023-06-10T01:03:31;6.07;;;1.17;;
60714;SDS011;46564;53.096;8.246;2023-06-10T01:08:40;2.33;;;0.85;;
60714;SDS011;46564;53.096;8.246;2023-06-10T01:13:50;5.45;;;1.25;;
60714;SDS011;46564;53.096;8.246;2023-06-10T01:18:52;2.83;;;1.05;;
60714;SDS011;46564;53.096;8.246;2023-06-10T01:23:55;3.30;;;1.52;;
60714;SDS011;46564;53.096;8.246;2023-06-10T01:28:59;3.28;;;1.40;;
60714;SDS011;46564;53.096;8.246;2023-06-10T01:34:08;3.70;;;1.85;;
60714;SDS011;46564;53.096;8.246;2023-06-10T01:39:17;3.35;;;1.50;;
60714;SDS011;46564;53.096;8.246;2023-06-10T01:44:23;5.78;;;1.08;;
60714;SDS011;46564;53.096;8.246;2023-06-10T01:49:25;7.90;;;1.33;;
60714;SDS011;46564;53.096;8.246;2023-06-10T01:54:27;6.55;;;1.35;;
60714;SDS011;46564;53.096;8.246;2023-06-10T01:59:29;4.03;;;1.08;;
60714;SDS011;46564;53.096;8.246;2023-06-10T02:04:31;3.17;;;1.55;;
60714;SDS011;46564;53.096;8.246;2023-06-10T02:09:36;7.53;;;1.52;;
60714;SDS011;46564;53.096;8.246;2023-06-10T02:14:37;5.30;;;1.40;;
60714;SDS011;46564;53.096;8.246;2023-06-10T02:19:40;6.78;;;1.80;;
60714;SDS011;46564;53.096;8.246;2023-06-10T02:24:43;5.35;;;1.42;;
60714;SDS011;46564;53.096;8.246;2023-06-10T02:29:45;2.85;;;1.33;;
60714;SDS011;46564;53.096;8.246;2023-06-10T02:34:47;1.67;;;1.20;;
60714;SDS011;46564;53.096;8.246;2023-06-10T02:39:50;5.57;;;2.15;;
60714;SDS011;46564;53.096;8.246;2023-06-10T02:44:53;4.32;;;1.45;;
60714;SDS011;46564;53.096;8.246;2023-06-10T02:50:05;2.83;;;1.40;;
60714;SDS011;46564;53.096;8.246;2023-06-10T02:55:13;1.52;;;1.13;;
60714;SDS011;46564;53.096;8.246;2023-06-10T03:00:22;4.05;;;1.67;;
60714;SDS011;46564;53.096;8.246;2023-06-10T03:05:26;6.47;;;1.75;;
60714;SDS011;46564;53.096;8.246;2023-06-10T03:10:30;3.13;;;1.27;;
60714;SDS011;46564;53.096;8.246;2023-06-10T03:15:35;3.88;;;1.80;;
60714;SDS011;46564;53.096;8.246;2023-06-10T03:20:40;6.82;;;2.15;;
60714;SDS011;46564;53.096;8.246;2023-06-10T03:25:44;1.80;;;1.48;;
60714;SDS011;46564;53.096;8.246;2023-06-10T03:30:50;1.83;;;1.05;;
60714;SDS011;46564;53.096;8.246;2023-06-10T03:35:56;3.85;;;1.52;;
60714;SDS011;46564;53.096;8.246;2023-06-10T03:40:59;4.53;;;1.75;;
60714;SDS011;46564;53.096;8.246;2023-06-10T03:46:01;5.22;;;2.17;;
60714;SDS011;46564;53.096;8.246;2023-06-10T03:51:06;22.65;;;2.70;;
60714;SDS011;46564;53.096;8.246;2023-06-10T03:56:07;4.35;;;1.95;;
60714;SDS011;46564;53.096;8.246;2023-06-10T04:01:10;5.75;;;2.22;;
60714;SDS011;46564;53.096;8.246;2023-06-10T04:06:12;4.50;;;1.98;;
60714;SDS011;46564;53.096;8.246;2023-06-10T04:11:14;8.55;;;2.80;;
60714;SDS011;46564;53.096;8.246;2023-06-10T04:16:15;3.30;;;1.85;;
60714;SDS011;46564;53.096;8.246;2023-06-10T04:21:17;3.90;;;1.75;;
60714;SDS011;46564;53.096;8.246;2023-06-10T04:26:23;3.35;;;1.80;;
60714;SDS011;46564;53.096;8.246;2023-06-10T04:31:26;6.35;;;1.77;;
60714;SDS011;46564;53.096;8.246;2023-06-10T04:36:28;3.83;;;1.45;;
60714;SDS011;46564;53.096;8.246;2023-06-10T04:41:32;4.65;;;1.50;;
60714;SDS011;46564;53.096;8.246;2023-06-10T04:46:33;2.72;;;1.30;;
60714;SDS011;46564;53.096;8.246;2023-06-10T04:51:36;3.40;;;1.65;;
60714;SDS011;46564;53.096;8.246;2023-06-10T04:56:39;6.38;;;1.70;;
60714;SDS011;46564;53.096;8.246;2023-06-10T05:01:41;2.88;;;1.40;;
60714;SDS011;46564;53.096;8.246;2023-06-10T05:06:43;4.47;;;2.25;;
60714;SDS011;46564;53.096;8.246;2023-06-10T05:11:45;6.32;;;2.00;;
60714;SDS011;46564;53.096;8.246;2023-06-10T05:16:47;5.28;;;2.40;;
60714;SDS011;46564;53.096;8.246;2023-06-10T05:21:50;14.98;;;2.95;;
60714;SDS011;46564;53.096;8.246;2023-06-10T05:26:51;4.95;;;2.33;;
60714;SDS011;46564;53.096;8.246;2023-06-10T05:31:53;2.75;;;1.65;;
60714;SDS011;46564;53.096;8.246;2023-06-10T05:36:57;4.13;;;2.13;;
60714;SDS011;46564;53.096;8.246;2023-06-10T05:41:59;4.35;;;2.17;;
60714;SDS011;46564;53.096;8.246;2023-06-10T05:47:02;4.13;;;2.53;;
60714;SDS011;46564;53.096;8.246;2023-06-10T05:52:06;3.88;;;2.17;;
60714;SDS011;46564;53.096;8.246;2023-06-10T05:57:07;5.18;;;2.30;;
60714;SDS011;46564;53.096;8.246;2023-06-10T06:02:09;5.15;;;2.60;;
60714;SDS011;46564;53.096;8.246;2023-06-10T06:07:12;6.50;;;2.03;;
60714;SDS011;46564;53.096;8.246;2023-06-10T06:12:13;9.18;;;2.40;;
60714;SDS011;46564;53.096;8.246;2023-06-10T06:17:16;3.50;;;2.00;;
60714;SDS011;46564;53.096;8.246;2023-06-10T06:22:18;5.05;;;2.05;;
60714;SDS011;46564;53.096;8.246;2023-06-10T06:27:22;7.70;;;1.88;;
60714;SDS011;46564;53.096;8.246;2023-06-10T06:32:24;4.47;;;2.20;;
60714;SDS011;46564;53.096;8.246;2023-06-10T06:37:28;7.55;;;2.15;;
60714;SDS011;46564;53.096;8.246;2023-06-10T06:42:46;5.85;;;2.30;;
60714;SDS011;46564;53.096;8.246;2023-06-10T06:47:57;9.02;;;1.98;;
60714;SDS011;46564;53.096;8.246;2023-06-10T06:52:59;3.53;;;1.90;;
60714;SDS011;46564;53.096;8.246;2023-06-10T06:58:00;6.03;;;1.98;;
60714;SDS011;46564;53.096;8.246;2023-06-10T07:03:05;2.60;;;1.60;;
60714;SDS011;46564;53.096;8.246;2023-06-10T07:08:06;3.28;;;1.75;;
60714;SDS011;46564;53.096;8.246;2023-06-10T07:13:08;5.95;;;2.35;;
60714;SDS011;46564;53.096;8.246;2023-06-10T07:18:11;11.88;;;3.50;;
60714;SDS011;46564;53.096;8.246;2023-06-10T07:23:12;9.93;;;2.90;;
60714;SDS011;46564;53.096;8.246;2023-06-10T07:28:14;5.32;;;2.40;;
60714;SDS011;46564;53.096;8.246;2023-06-10T07:33:17;5.80;;;2.80;;
60714;SDS011;46564;53.096;8.246;2023-06-10T07:38:19;8.35;;;2.42;;
60714;SDS011;46564;53.096;8.246;2023-06-10T07:43:20;4.57;;;2.03;;
60714;SDS011;46564;53.096;8.246;2023-06-10T07:48:22;4.82;;;2.00;;
60714;SDS011;46564;53.096;8.246;2023-06-10T07:59:29;7.30;;;1.70;;
60714;SDS011;46564;53.096;8.246;2023-06-10T08:04:31;7.93;;;2.10;;
60714;SDS011;46564;53.096;8.246;2023-06-10T08:09:33;4.10;;;1.95;;
60714;SDS011;46564;53.096;8.246;2023-06-10T08:14:35;3.08;;;1.75;;
60714;SDS011;46564;53.096;8.246;2023-06-10T08:19:38;4.70;;;1.88;;
60714;SDS011;46564;53.096;8.246;2023-06-10T08:24:39;5.50;;;1.70;;
60714;SDS011;46564;53.096;8.246;2023-06-10T08:29:41;3.53;;;2.00;;
60714;SDS011;46564;53.096;8.246;2023-06-10T08:34:43;3.03;;;1.65;;
60714;SDS011;46564;53.096;8.246;2023-06-10T08:39:44;6.00;;;2.08;;
60714;SDS011;46564;53.096;8.246;2023-06-10T08:44:46;7.45;;;2.85;;
60714;SDS011;46564;53.096;8.246;2023-06-10T08:49:49;4.82;;;1.90;;
60714;SDS011;46564;53.096;8.246;2023-06-10T08:54:52;5.15;;;1.70;;
60714;SDS011;46564;53.096;8.246;2023-06-10T09:00:01;3.92;;;1.88;;
60714;SDS011;46564;53.096;8.246;2023-06-10T09:05:07;5.05;;;1.80;;
60714;SDS011;46564;53.096;8.246;2023-06-10T09:10:10;6.60;;;2.20;;
60714;SDS011;46564;53.096;8.246;2023-06-10T09:15:12;4.65;;;2.05;;
60714;SDS011;46564;53.096;8.246;2023-06-10T09:20:16;4.10;;;2.00;;
60714;SDS011;46564;53.096;8.246;2023-06-10T09:25:18;4.43;;;1.90;;
60714;SDS011;46564;53.096;8.246;2023-06-10T09:30:27;4.28;;;2.10;;
60714;SDS011;46564;53.096;8.246;2023-06-10T09:35:30;10.02;;;2.80;;
60714;SDS011;46564;53.096;8.246;2023-06-10T09:40:32;3.67;;;1.77;;
60714;SDS011;46564;53.096;8.246;2023-06-10T09:45:34;4.60;;;2.17;;
60714;SDS011;46564;53.096;8.246;2023-06-10T09:50:41;6.75;;;2.28;;
60714;SDS011;46564;53.096;8.246;2023-06-10T09:55:44;8.18;;;2.28;;
60714;SDS011;46564;53.096;8.246;2023-06-10T10:00:52;4.45;;;2.00;;
60714;SDS011;46564;53.096;8.246;2023-06-10T10:06:00;6.27;;;1.63;;
60714;SDS011;46564;53.096;8.246;2023-06-10T10:11:02;12.07;;;3.33;;
60714;SDS011;46564;53.096;8.246;2023-06-10T10:16:09;5.32;;;2.28;;
60714;SDS011;46564;53.096;8.246;2023-06-10T10:21:14;4.65;;;2.13;;
60714;SDS011;46564;53.096;8.246;2023-06-10T10:26:17;7.88;;;2.20;;
60714;SDS011;46564;53.096;8.246;2023-06-10T10:31:19;5.50;;;2.15;;
60714;SDS011;46564;53.096;8.246;2023-06-10T10:36:23;5.22;;;2.55;;
60714;SDS011;46564;53.096;8.246;2023-06-10T10:41:25;4.53;;;2.25;;
60714;SDS011;46564;53.096;8.246;2023-06-10T10:46:28;5.25;;;2.20;;
60714;SDS011;46564;53.096;8.246;2023-06-10T10:51:33;7.22;;;2.33;;
60714;SDS011;46564;53.096;8.246;2023-06-10T10:56:38;7.32;;;2.58;;
60714;SDS011;46564;53.096;8.246;2023-06-10T11:01:41;3.83;;;1.95;;
60714;SDS011;46564;53.096;8.246;2023-06-10T11:06:53;3.85;;;2.13;;
60714;SDS011;46564;53.096;8.246;2023-06-10T11:11:58;4.35;;;2.20;;
60714;SDS011;46564;53.096;8.246;2023-06-10T11:17:01;5.07;;;2.00;;
60714;SDS011;46564;53.096;8.246;2023-06-10T11:22:06;6.50;;;2.03;;
60714;SDS011;46564;53.096;8.246;2023-06-10T11:27:15;3.10;;;1.50;;
60714;SDS011;46564;53.096;8.246;2023-06-10T11:32:20;5.00;;;1.65;;
60714;SDS011;46564;53.096;8.246;2023-06-10T11:37:22;3.10;;;1.20;;
60714;SDS011;46564;53.096;8.246;2023-06-10T11:42:34;5.53;;;1.63;;
60714;SDS011;46564;53.096;8.246;2023-06-10T11:48:00;3.38;;;1.58;;
60714;SDS011;46564;53.096;8.246;2023-06-10T11:53:02;2.95;;;1.30;;
60714;SDS011;46564;53.096;8.246;2023-06-10T11:58:04;2.10;;;1.10;;
60714;SDS011;46564;53.096;8.246;2023-06-10T12:03:06;4.82;;;1.48;;
60714;SDS011;46564;53.096;8.246;2023-06-10T12:08:08;2.15;;;0.93;;
60714;SDS011;46564;53.096;8.246;2023-06-10T12:13:11;2.00;;;1.00;;
60714;SDS011;46564;53.096;8.246;2023-06-10T12:18:17;4.18;;;1.30;;
60714;SDS011;46564;53.096;8.246;2023-06-10T12:23:19;3.28;;;1.30;;
60714;SDS011;46564;53.096;8.246;2023-06-10T12:28:23;2.83;;;1.08;;
60714;SDS011;46564;53.096;8.246;2023-06-10T12:33:25;4.97;;;1.00;;
60714;SDS011;46564;53.096;8.246;2023-06-10T12:38:27;3.22;;;1.20;;
60714;SDS011;46564;53.096;8.246;2023-06-10T12:43:30;2.22;;;1.15;;
60714;SDS011;46564;53.096;8.246;2023-06-10T12:48:32;1.58;;;0.90;;
60714;SDS011;46564;53.096;8.246;2023-06-10T12:53:34;4.85;;;1.23;;
60714;SDS011;46564;53.096;8.246;2023-06-10T12:58:35;1.73;;;1.08;;
60714;SDS011;46564;53.096;8.246;2023-06-10T13:03:37;2.85;;;1.00;;
60714;SDS011;46564;53.096;8.246;2023-06-10T13:08:40;4.03;;;1.13;;
60714;SDS011;46564;53.096;8.246;2023-06-10T13:13:42;2.60;;;1.02;;
60714;SDS011;46564;53.096;8.246;2023-06-10T13:18:43;2.40;;;1.08;;
60714;SDS011;46564;53.096;8.246;2023-06-10T13:23:45;2.25;;;1.05;;
60714;SDS011;46564;53.096;8.246;2023-06-10T13:28:49;3.50;;;1.15;;
60714;SDS011;46564;53.096;8.246;2023-06-10T13:33:51;2.80;;;1.15;;
60714;SDS011;46564;53.096;8.246;2023-06-10T13:38:53;2.03;;;0.90;;
60714;SDS011;46564;53.096;8.246;2023-06-10T13:43:55;3.42;;;0.85;;
60714;SDS011;46564;53.096;8.246;2023-06-10T13:48:56;1.92;;;0.93;;
60714;SDS011;46564;53.096;8.246;2023-06-10T13:53:58;2.47;;;1.00;;
60714;SDS011;46564;53.096;8.246;2023-06-10T13:59:00;2.08;;;1.05;;
60714;SDS011;46564;53.096;8.246;2023-06-10T14:04:05;2.25;;;0.85;;
60714;SDS011;46564;53.096;8.246;2023-06-10T14:09:08;4.03;;;1.33;;
60714;SDS011;46564;53.096;8.246;2023-06-10T14:14:10;3.97;;;1.30;;
60714;SDS011;46564;53.096;8.246;2023-06-10T14:19:12;3.13;;;0.95;;
60714;SDS011;46564;53.096;8.246;2023-06-10T14:24:14;3.30;;;1.40;;
60714;SDS011;46564;53.096;8.246;2023-06-10T14:29:15;3.08;;;1.27;;
60714;SDS011;46564;53.096;8.246;2023-06-10T14:34:19;2.05;;;1.00;;
60714;SDS011;46564;53.096;8.246;2023-06-10T14:39:21;3.58;;;1.40;;
60714;SDS011;46564;53.096;8.246;2023-06-10T14:44:23;2.60;;;1.15;;
60714;SDS011;46564;53.096;8.246;2023-06-10T14:49:25;2.58;;;1.30;;
60714;SDS011;46564;53.096;8.246;2023-06-10T14:54:27;4.07;;;1.55;;
60714;SDS011;46564;53.096;8.246;2023-06-10T14:59:29;1.80;;;1.00;;
60714;SDS011;46564;53.096;8.246;2023-06-10T15:04:31;3.25;;;1.52;;
60714;SDS011;46564;53.096;8.246;2023-06-10T15:09:36;2.13;;;1.30;;
60714;SDS011;46564;53.096;8.246;2023-06-10T15:14:37;2.65;;;1.00;;
60714;SDS011;46564;53.096;8.246;2023-06-10T15:19:39;3.13;;;1.27;;
60714;SDS011;46564;53.096;8.246;2023-06-10T15:24:41;3.08;;;1.30;;
60714;SDS011;46564;53.096;8.246;2023-06-10T15:29:43;2.72;;;1.30;;
60714;SDS011;46564;53.096;8.246;2023-06-10T15:34:45;3.38;;;1.25;;
60714;SDS011;46564;53.096;8.246;2023-06-10T15:39:48;3.42;;;1.50;;
60714;SDS011;46564;53.096;8.246;2023-06-10T15:44:51;3.75;;;1.63;;
60714;SDS011;46564;53.096;8.246;2023-06-10T15:49:53;4.78;;;1.58;;
60714;SDS011;46564;53.096;8.246;2023-06-10T15:54:55;3.15;;;1.40;;
60714;SDS011;46564;53.096;8.246;2023-06-10T15:59:58;8.68;;;3.70;;
60714;SDS011;46564;53.096;8.246;2023-06-10T16:04:59;4.43;;;1.85;;
60714;SDS011;46564;53.096;8.246;2023-06-10T16:10:01;3.60;;;1.80;;
60714;SDS011;46564;53.096;8.246;2023-06-10T16:15:04;10.73;;;3.33;;
60714;SDS011;46564;53.096;8.246;2023-06-10T16:20:07;3.70;;;1.80;;
60714;SDS011;46564;53.096;8.246;2023-06-10T16:25:09;5.97;;;1.80;;
60714;SDS011;46564;53.096;8.246;2023-06-10T16:30:11;3.65;;;1.73;;
60714;SDS011;46564;53.096;8.246;2023-06-10T16:35:15;5.85;;;1.98;;
60714;SDS011;46564;53.096;8.246;2023-06-10T16:40:18;2.75;;;1.50;;
60714;SDS011;46564;53.096;8.246;2023-06-10T16:45:20;3.78;;;1.90;;
60714;SDS011;46564;53.096;8.246;2023-06-10T16:50:21;4.50;;;2.00;;
60714;SDS011;46564;53.096;8.246;2023-06-10T16:55:23;4.45;;;2.03;;
60714;SDS011;46564;53.096;8.246;2023-06-10T17:00:25;2.90;;;1.67;;
60714;SDS011;46564;53.096;8.246;2023-06-10T17:05:27;5.47;;;1.98;;
60714;SDS011;46564;53.096;8.246;2023-06-10T17:10:29;4.78;;;2.10;;
60714;SDS011;46564;53.096;8.246;2023-06-10T17:15:30;3.40;;;1.73;;
60714;SDS011;46564;53.096;8.246;2023-06-10T17:20:32;5.25;;;2.08;;
60714;SDS011;46564;53.096;8.246;2023-06-10T17:25:34;5.55;;;2.08;;
60714;SDS011;46564;53.096;8.246;2023-06-10T17:30:37;5.28;;;1.90;;
60714;SDS011;46564;53.096;8.246;2023-06-10T17:35:39;3.05;;;1.52;;
60714;SDS011;46564;53.096;8.246;2023-06-10T17:40:41;4.28;;;1.70;;
60714;SDS011;46564;53.096;8.246;2023-06-10T17:45:44;4.15;;;1.65;;
60714;SDS011;46564;53.096;8.246;2023-06-10T17:50:46;4.28;;;1.80;;
60714;SDS011;46564;53.096;8.246;2023-06-10T17:55:48;3.90;;;1.77;;
60714;SDS011;46564;53.096;8.246;2023-06-10T18:00:49;8.05;;;2.78;;
60714;SDS011;46564;53.096;8.246;2023-06-10T18:05:52;10.63;;;2.30;;
60714;SDS011;46564;53.096;8.246;2023-06-10T18:10:55;3.97;;;1.98;;
60714;SDS011;46564;53.096;8.246;2023-06-10T18:15:56;6.22;;;2.05;;
60714;SDS011;46564;53.096;8.246;2023-06-10T18:21:01;4.07;;;2.17;;
60714;SDS011;46564;53.096;8.246;2023-06-10T18:26:03;6.25;;;2.33;;
60714;SDS011;46564;53.096;8.246;2023-06-10T18:31:05;4.38;;;2.00;;
60714;SDS011;46564;53.096;8.246;2023-06-10T18:36:07;4.85;;;2.38;;
60714;SDS011;46564;53.096;8.246;2023-06-10T18:44:35;3.70;;;1.80;;
60714;SDS011;46564;53.096;8.246;2023-06-10T18:49:37;4.28;;;1.88;;
60714;SDS011;46564;53.096;8.246;2023-06-10T18:54:39;3.97;;;2.20;;
60714;SDS011;46564;53.096;8.246;2023-06-10T18:59:41;4.72;;;2.33;;
60714;SDS011;46564;53.096;8.246;2023-06-10T19:04:44;12.30;;;2.97;;
60714;SDS011;46564;53.096;8.246;2023-06-10T19:09:45;6.15;;;2.47;;
60714;SDS011;46564;53.096;8.246;2023-06-10T19:14:48;6.75;;;2.97;;
60714;SDS011;46564;53.096;8.246;2023-06-10T19:19:50;6.38;;;2.28;;
60714;SDS011;46564;53.096;8.246;2023-06-10T19:25:01;4.47;;;2.08;;
60714;SDS011;46564;53.096;8.246;2023-06-10T19:30:05;4.50;;;2.22;;
60714;SDS011;46564;53.096;8.246;2023-06-10T19:35:07;4.05;;;2.05;;
60714;SDS011;46564;53.096;8.246;2023-06-10T19:40:10;3.08;;;1.90;;
60714;SDS011;46564;53.096;8.246;2023-06-10T19:45:14;4.70;;;1.70;;
60714;SDS011;46564;53.096;8.246;2023-06-10T19:50:16;5.50;;;2.08;;
60714;SDS011;46564;53.096;8.246;2023-06-10T19:55:17;5.13;;;1.60;;
60714;SDS011;46564;53.096;8.246;2023-06-10T20:00:19;5.70;;;1.83;;
60714;SDS011;46564;53.096;8.246;2023-06-10T20:05:22;4.35;;;1.63;;
60714;SDS011;46564;53.096;8.246;2023-06-10T20:10:24;3.75;;;1.80;;
60714;SDS011;46564;53.096;8.246;2023-06-10T20:15:26;5.72;;;1.95;;
60714;SDS011;46564;53.096;8.246;2023-06-10T20:20:28;3.72;;;1.38;;
60714;SDS011;46564;53.096;8.246;2023-06-10T20:25:29;2.88;;;1.20;;
60714;SDS011;46564;53.096;8.246;2023-06-10T20:30:31;3.47;;;1.50;;
60714;SDS011;46564;53.096;8.246;2023-06-10T20:35:33;4.90;;;1.95;;
60714;SDS011;46564;53.096;8.246;2023-06-10T20:40:36;4.82;;;1.90;;
60714;SDS011;46564;53.096;8.246;2023-06-10T20:45:38;8.05;;;2.50;;
60714;SDS011;46564;53.096;8.246;2023-06-10T20:50:39;7.07;;;1.85;;
60714;SDS011;46564;53.096;8.246;2023-06-10T20:55:41;5.18;;;2.30;;
60714;SDS011;46564;53.096;8.246;2023-06-10T21:00:43;6.70;;;2.50;;
60714;SDS011;46564;53.096;8.246;2023-06-10T21:05:45;6.95;;;2.00;;
60714;SDS011;46564;53.096;8.246;2023-06-10T21:10:48;3.53;;;1.60;;
60714;SDS011;46564;53.096;8.246;2023-06-10T21:15:51;5.13;;;2.08;;
60714;SDS011;46564;53.096;8.246;2023-06-10T21:20:53;4.03;;;1.90;;
60714;SDS011;46564;53.096;8.246;2023-06-10T21:25:54;6.93;;;2.00;;
60714;SDS011;46564;53.096;8.246;2023-06-10T21:30:56;5.93;;;2.28;;
60714;SDS011;46564;53.096;8.246;2023-06-10T21:35:58;7.85;;;2.33;;
60714;SDS011;46564;53.096;8.246;2023-06-10T21:40:59;5.10;;;2.00;;
60714;SDS011;46564;53.096;8.246;2023-06-10T21:46:01;4.35;;;2.10;;
60714;SDS011;46564;53.096;8.246;2023-06-10T21:51:04;4.70;;;2.17;;
60714;SDS011;46564;53.096;8.246;2023-06-10T21:56:05;5.10;;;1.90;;
60714;SDS011;46564;53.096;8.246;2023-06-10T22:01:07;5.50;;;2.50;;
60714;SDS011;46564;53.096;8.246;2023-06-10T22:06:09;5.47;;;2.20;;
60714;SDS011;46564;53.096;8.246;2023-06-10T22:11:11;5.50;;;2.40;;
60714;SDS011;46564;53.096;8.246;2023-06-10T22:16:13;5.28;;;2.63;;
60714;SDS011;46564;53.096;8.246;2023-06-10T22:21:14;10.18;;;2.80;;
60714;SDS011;46564;53.096;8.246;2023-06-10T22:26:16;3.97;;;1.95;;
60714;SDS011;46564;53.096;8.246;2023-06-10T22:31:18;12.35;;;3.35;;
60714;SDS011;46564;53.096;8.246;2023-06-10T22:36:20;9.80;;;4.05;;
60714;SDS011;46564;53.096;8.246;2023-06-10T22:41:21;8.63;;;3.20;;
60714;SDS011;46564;53.096;8.246;2023-06-10T22:46:23;6.00;;;2.90;;
60714;SDS011;46564;53.096;8.246;2023-06-10T22:51:25;7.53;;;2.67;;
60714;SDS011;46564;53.096;8.246;2023-06-10T22:56:27;3.83;;;1.92;;
60714;SDS011;46564;53.096;8.246;2023-06-10T23:01:29;5.22;;;2.70;;
60714;SDS011;46564;53.096;8.246;2023-06-10T23:06:32;6.53;;;2.95;;
60714;SDS011;46564;53.096;8.246;2023-06-10T23:11:34;4.80;;;2.38;;
60714;SDS011;46564;53.096;8.246;2023-06-10T23:16:36;9.45;;;3.15;;
60714;SDS011;46564;53.096;8.246;2023-06-10T23:21:47;5.28;;;2.65;;
60714;SDS011;46564;53.096;8.246;2023-06-10T23:26:56;5.53;;;2.25;;
60714;SDS011;46564;53.096;8.246;2023-06-10T23:31:58;5.15;;;2.45;;
60714;SDS011;46564;53.096;8.246;2023-06-10T23:37:03;5.07;;;2.58;;
60714;SDS011;46564;53.096;8.246;2023-06-10T23:42:05;9.60;;;2.80;;
60714;SDS011;46564;53.096;8.246;2023-06-10T23:47:08;6.20;;;2.88;;
60714;SDS011;46564;53.096;8.246;2023-06-10T23:52:10;7.80;;;2.38;;
60714;SDS011;46564;53.096;8.246;2023-06-10T23:57:13;7.45;;;2.20;;
